Lech, Austria
Current Conditions -  °F | °C
As of 10:20 AM on Friday 31 Oct 2014 (Local Time) from LSZR Reporting Station
Broken Clouds Broken Clouds  
Wind Chill: 44°   Ceiling: 500
Heat Index: 46°   Visibility: 3mi
Dew Point: 45°   Wind: 5mph
Humidity: 93%   Direction: 260°W
Pressure: 30.33"   Gusts: NA
Location:  47.21°N, 10.14°E
Report Text: LSZR 310820Z 26004KT 220V300 5000 BKN005 08/07 Q1027 NOSIG RMK D
Loading
Personal Weather Stations






























Interactive Weather Map
Tropical Storm Tracking
New forecast layout! Learn more

10-Day Weather Forecast

Advertisements
Track Severe Weather on mobile